createdAt,value
2017-12-01T00:00:49.700Z,73.60
2017-12-01T00:03:17.318Z,73.80
2017-12-01T00:05:44.916Z,73.50
2017-12-01T00:08:13.305Z,73.50
2017-12-01T00:10:40.906Z,73.50
2017-12-01T00:13:08.521Z,73.90
2017-12-01T00:15:36.125Z,73.80
2017-12-01T00:18:03.741Z,74.10
2017-12-01T00:20:31.340Z,74.10
2017-12-01T00:22:58.967Z,73.80
2017-12-01T00:25:26.568Z,73.70
2017-12-01T00:27:54.161Z,73.90
2017-12-01T00:30:22.557Z,74.00
2017-12-01T00:32:50.905Z,73.90
2017-12-01T00:35:18.526Z,73.80
2017-12-01T00:40:16.629Z,73.80
2017-12-01T00:42:45.019Z,74.10
2017-12-01T00:45:13.556Z,73.90
2017-12-01T00:47:41.224Z,73.80
2017-12-01T00:50:08.883Z,74.10
2017-12-01T00:52:36.537Z,73.90
2017-12-01T00:55:04.207Z,74.00
2017-12-01T00:57:31.983Z,74.00
2017-12-01T00:59:59.645Z,73.40
2017-12-01T01:02:27.291Z,73.70
2017-12-01T01:04:54.958Z,73.30
2017-12-01T01:07:22.663Z,73.00
2017-12-01T01:09:51.091Z,75.00
2017-12-01T01:12:18.721Z,74.00
2017-12-01T01:14:46.432Z,73.60
2017-12-01T01:17:14.056Z,74.00
2017-12-01T01:19:41.759Z,74.00
2017-12-01T01:22:09.437Z,74.20
2017-12-01T01:24:37.117Z,73.90
2017-12-01T01:27:05.514Z,74.30
2017-12-01T01:29:33.222Z,74.10
2017-12-01T01:32:00.839Z,73.90
2017-12-01T01:34:28.498Z,74.10
2017-12-01T01:36:57.067Z,75.00
2017-12-01T01:39:25.445Z,73.90
2017-12-01T01:41:53.895Z,74.10
2017-12-01T01:44:21.547Z,73.80
2017-12-01T01:46:49.229Z,73.80
2017-12-01T01:49:16.892Z,74.30
2017-12-01T01:51:44.572Z,74.00
2017-12-01T01:54:12.982Z,73.60
2017-12-01T01:56:40.668Z,73.50
2017-12-01T01:59:08.349Z,73.60
2017-12-01T02:01:36.091Z,73.70
2017-12-01T02:04:03.729Z,73.70
2017-12-01T02:06:31.406Z,73.50
2017-12-01T02:08:59.048Z,73.90
2017-12-01T02:11:26.861Z,74.20
2017-12-01T02:13:54.523Z,74.10
2017-12-01T02:16:22.380Z,74.20
2017-12-01T02:18:50.053Z,74.10
2017-12-01T02:21:17.933Z,74.20
2017-12-01T02:23:46.356Z,73.90
2017-12-01T02:26:14.034Z,73.80
2017-12-01T02:28:41.693Z,73.90
2017-12-01T02:31:09.391Z,73.90
2017-12-01T02:33:37.334Z,73.70
2017-12-01T02:36:05.004Z,73.90
2017-12-01T02:38:32.712Z,73.90
2017-12-01T02:41:00.391Z,73.70
2017-12-01T02:43:29.105Z,73.20
2017-12-01T02:45:56.785Z,73.20
2017-12-01T02:48:24.459Z,73.00
2017-12-01T02:50:52.106Z,73.60
2017-12-01T02:53:19.868Z,73.30
2017-12-01T02:55:47.522Z,73.20
2017-12-01T02:58:15.215Z,73.20
2017-12-01T03:00:42.985Z,73.00
2017-12-01T03:03:10.617Z,73.10
2017-12-01T03:05:38.288Z,73.10
2017-12-01T03:08:06.071Z,73.10
2017-12-01T03:10:33.730Z,72.90
2017-12-01T03:13:01.501Z,72.90
2017-12-01T03:15:29.293Z,73.00
2017-12-01T03:17:57.892Z,72.90
2017-12-01T03:20:26.345Z,72.60
2017-12-01T03:22:54.037Z,72.50
2017-12-01T03:25:21.702Z,72.90
2017-12-01T03:27:49.376Z,72.60
2017-12-01T03:30:17.031Z,72.90
2017-12-01T03:32:44.740Z,73.10
2017-12-01T03:35:12.526Z,73.20
2017-12-01T03:37:40.190Z,73.20
2017-12-01T03:40:07.899Z,73.20
2017-12-01T03:42:35.590Z,72.60
2017-12-01T03:45:03.278Z,72.60
2017-12-01T03:47:31.027Z,73.20
2017-12-01T03:49:58.750Z,73.20
2017-12-01T03:52:26.547Z,73.40
2017-12-01T03:54:54.314Z,73.10
2017-12-01T03:57:22.088Z,73.40
2017-12-01T03:59:49.843Z,73.30
2017-12-01T04:02:17.503Z,73.20
2017-12-01T04:04:45.252Z,73.70
2017-12-01T04:07:12.948Z,73.10
2017-12-01T04:09:40.628Z,73.30
2017-12-01T04:12:08.285Z,72.70
2017-12-01T04:14:35.979Z,72.90
2017-12-01T04:17:03.632Z,73.80
2017-12-01T04:19:32.125Z,73.30
2017-12-01T04:21:59.790Z,73.30
2017-12-01T04:24:27.459Z,73.10
2017-12-01T04:26:55.160Z,72.70
2017-12-01T04:29:23.199Z,73.10
2017-12-01T04:31:50.918Z,73.20
2017-12-01T04:34:19.336Z,73.40
2017-12-01T04:36:47.124Z,73.20
2017-12-01T04:39:15.024Z,73.20
2017-12-01T04:41:44.303Z,73.70
2017-12-01T04:44:11.950Z,73.70
2017-12-01T04:46:39.638Z,73.80
2017-12-01T04:49:09.334Z,73.60
2017-12-01T04:51:37.040Z,73.80
2017-12-01T04:54:05.897Z,74.00
2017-12-01T04:56:34.015Z,73.80
2017-12-01T04:59:01.683Z,73.70
2017-12-01T05:01:29.376Z,73.00
2017-12-01T05:03:57.140Z,72.90
2017-12-01T05:06:24.819Z,72.70
2017-12-01T05:08:52.470Z,73.10
2017-12-01T05:11:20.183Z,72.70
2017-12-01T05:13:48.603Z,72.40
2017-12-01T05:16:16.374Z,72.40
2017-12-01T05:18:44.053Z,71.80
2017-12-01T05:21:11.739Z,71.90
2017-12-01T05:23:40.185Z,73.60
2017-12-01T05:26:07.859Z,73.50
2017-12-01T05:28:35.499Z,73.80
2017-12-01T05:31:03.294Z,73.90
2017-12-01T05:33:31.734Z,74.60
2017-12-01T05:35:59.531Z,73.70
2017-12-01T05:38:27.211Z,73.70
2017-12-01T05:40:54.956Z,73.80
2017-12-01T05:43:22.679Z,73.60
2017-12-01T05:45:50.314Z,73.60
2017-12-01T05:48:18.766Z,73.30
2017-12-01T05:50:46.431Z,73.20
2017-12-01T05:53:14.096Z,73.30
2017-12-01T05:55:41.758Z,73.50
2017-12-01T05:58:09.462Z,73.50
2017-12-01T06:00:37.869Z,73.50
2017-12-01T06:03:05.551Z,74.30
2017-12-01T06:05:33.274Z,73.20
2017-12-01T06:08:00.973Z,73.50
2017-12-01T06:10:28.637Z,73.30
2017-12-01T06:12:56.314Z,73.20
2017-12-01T06:15:23.963Z,73.00
2017-12-01T06:17:51.707Z,73.50
2017-12-01T06:20:19.401Z,73.30
2017-12-01T06:22:47.251Z,73.30
2017-12-01T06:25:15.018Z,72.80
2017-12-01T06:27:42.698Z,73.00
2017-12-01T06:30:10.355Z,72.80
2017-12-01T06:32:38.123Z,73.00
2017-12-01T06:35:05.788Z,72.90
2017-12-01T06:37:33.566Z,73.20
2017-12-01T06:40:01.248Z,73.20
2017-12-01T06:42:29.672Z,73.70
2017-12-01T06:44:57.365Z,73.70
2017-12-01T06:47:25.010Z,73.60
2017-12-01T06:49:52.746Z,73.70
2017-12-01T06:52:20.427Z,73.60
2017-12-01T06:54:48.096Z,73.60
2017-12-01T06:57:15.859Z,73.80
2017-12-01T06:59:43.548Z,73.90
2017-12-01T07:02:12.681Z,73.70
2017-12-01T07:04:40.336Z,73.70
2017-12-01T07:07:08.055Z,73.70
2017-12-01T07:09:35.935Z,73.60
2017-12-01T07:12:04.404Z,73.60
2017-12-01T07:14:32.052Z,73.60
2017-12-01T07:16:59.667Z,73.40
2017-12-01T07:19:28.080Z,73.70
2017-12-01T07:21:55.770Z,73.50
2017-12-01T07:24:23.463Z,73.50
2017-12-01T07:27:03.001Z,73.50
2017-12-01T07:29:30.641Z,73.50
2017-12-01T07:31:58.380Z,73.00
2017-12-01T07:34:26.035Z,73.20
2017-12-01T07:36:53.651Z,73.60
2017-12-01T07:39:21.307Z,73.60
2017-12-01T07:41:48.952Z,74.30
2017-12-01T07:47:15.100Z,73.10
2017-12-01T07:49:43.525Z,73.30
2017-12-01T07:52:11.159Z,73.30
2017-12-01T07:54:38.771Z,73.10
2017-12-01T07:57:07.165Z,73.60
2017-12-01T07:59:35.530Z,73.70
2017-12-01T08:02:03.163Z,73.50
2017-12-01T08:04:30.769Z,73.40
2017-12-01T08:06:59.168Z,73.00
2017-12-01T08:09:26.784Z,72.80
2017-12-01T08:11:54.428Z,73.50
2017-12-01T08:14:22.026Z,73.60
2017-12-01T08:17:02.353Z,73.60
2017-12-01T08:19:29.949Z,73.60
2017-12-01T08:22:10.305Z,73.60
2017-12-01T08:27:44.212Z,73.80
2017-12-01T08:30:11.848Z,73.80
2017-12-01T08:32:39.496Z,73.60
2017-12-01T08:35:07.105Z,73.50
2017-12-01T08:37:34.745Z,73.70
2017-12-01T08:40:02.345Z,73.80
2017-12-01T08:42:30.736Z,73.50
2017-12-01T08:44:58.730Z,73.50
2017-12-01T08:47:27.027Z,73.80
2017-12-01T08:49:54.965Z,73.90
2017-12-01T08:52:22.581Z,74.00
2017-12-01T08:54:50.206Z,73.90
2017-12-01T08:57:17.825Z,73.80
2017-12-01T08:59:46.239Z,73.70
2017-12-01T09:02:13.849Z,73.60
2017-12-01T09:04:41.462Z,73.70
2017-12-01T09:07:09.088Z,73.50
2017-12-01T09:09:36.688Z,73.70
2017-12-01T09:12:04.349Z,73.80
2017-12-01T09:14:31.956Z,73.90
2017-12-01T09:16:59.616Z,74.10
2017-12-01T09:19:27.216Z,73.80
2017-12-01T09:21:54.836Z,73.90
2017-12-01T09:24:22.681Z,74.10
2017-12-01T09:26:50.273Z,74.00
2017-12-01T09:29:21.410Z,74.20
2017-12-01T09:31:49.891Z,74.40
2017-12-01T09:34:18.286Z,74.40
2017-12-01T09:36:46.672Z,74.40
2017-12-01T09:39:14.270Z,74.30
2017-12-01T09:41:41.925Z,74.40
2017-12-01T09:44:09.561Z,74.40
2017-12-01T09:46:37.194Z,74.50
2017-12-01T09:49:05.564Z,74.30
2017-12-01T09:51:33.203Z,74.10
2017-12-01T09:54:00.801Z,73.80
2017-12-01T09:56:29.203Z,74.40
2017-12-01T09:58:56.832Z,74.30
2017-12-01T10:01:25.200Z,74.50
2017-12-01T10:03:54.337Z,74.30
2017-12-01T10:06:21.958Z,74.20
2017-12-01T10:08:49.589Z,74.30
2017-12-01T10:11:17.184Z,74.40
2017-12-01T10:13:44.809Z,74.40
2017-12-01T10:16:12.415Z,75.20
2017-12-01T10:18:40.816Z,74.70
2017-12-01T10:21:08.407Z,74.70
2017-12-01T10:23:36.021Z,74.70
2017-12-01T10:26:04.414Z,74.20
2017-12-01T10:28:32.029Z,74.00
2017-12-01T10:30:59.652Z,74.50
2017-12-01T10:33:27.244Z,74.40
2017-12-01T10:35:54.858Z,74.50
2017-12-01T10:38:22.505Z,74.50
2017-12-01T10:40:50.908Z,74.50
2017-12-01T10:43:18.553Z,74.40
2017-12-01T10:45:46.168Z,75.10
2017-12-01T10:48:13.801Z,74.40
2017-12-01T10:50:41.432Z,74.30
2017-12-01T10:53:09.802Z,74.60
2017-12-01T10:55:38.211Z,74.90
2017-12-01T10:58:05.811Z,74.80
2017-12-01T11:00:34.199Z,74.90
2017-12-01T11:03:01.836Z,74.80
2017-12-01T11:05:29.433Z,75.00
2017-12-01T11:07:57.045Z,75.20
2017-12-01T11:10:24.676Z,75.20
2017-12-01T11:12:53.042Z,74.20
2017-12-01T11:15:21.437Z,74.40
2017-12-01T11:17:49.041Z,74.20
2017-12-01T11:20:16.636Z,74.50
2017-12-01T11:22:45.044Z,74.70
2017-12-01T11:25:12.649Z,74.70
2017-12-01T11:27:40.316Z,74.30
2017-12-01T11:30:07.952Z,74.20
2017-12-01T11:32:35.548Z,73.80
2017-12-01T11:35:03.962Z,73.80
2017-12-01T11:37:31.562Z,73.90
2017-12-01T11:39:59.206Z,74.90
2017-12-01T11:42:26.798Z,74.70
2017-12-01T11:44:54.389Z,74.90
2017-12-01T11:47:22.917Z,74.40
2017-12-01T11:49:50.703Z,74.30
2017-12-01T11:52:18.345Z,74.10
2017-12-01T11:54:45.953Z,74.10
2017-12-01T11:57:14.341Z,74.70
2017-12-01T11:59:42.736Z,74.40
2017-12-01T12:02:10.349Z,74.20
2017-12-01T12:04:37.999Z,74.70
2017-12-01T12:07:05.605Z,74.90
2017-12-01T12:09:34.064Z,74.80
2017-12-01T12:12:01.710Z,74.80
2017-12-01T12:14:29.332Z,74.30
2017-12-01T12:16:57.011Z,74.80
2017-12-01T12:19:24.614Z,74.70
2017-12-01T12:21:52.236Z,73.80
2017-12-01T12:24:19.884Z,73.90
2017-12-01T12:26:47.514Z,74.00
2017-12-01T12:29:15.924Z,73.90
2017-12-01T12:31:43.556Z,73.90
2017-12-01T12:34:11.217Z,73.90
2017-12-01T12:36:38.835Z,73.40
2017-12-01T12:39:06.478Z,73.50
2017-12-01T12:41:34.100Z,73.10
2017-12-01T12:44:02.497Z,73.70
2017-12-01T12:46:30.160Z,73.60
2017-12-01T12:48:57.784Z,74.20
2017-12-01T12:51:25.446Z,74.10
2017-12-01T12:53:53.850Z,73.90
2017-12-01T12:56:21.476Z,73.80
2017-12-01T12:58:49.104Z,73.60
2017-12-01T13:01:16.715Z,73.30
2017-12-01T13:03:45.127Z,73.00
2017-12-01T13:06:12.761Z,72.80
2017-12-01T13:08:41.194Z,73.40
2017-12-01T13:11:08.800Z,73.40
2017-12-01T13:13:37.199Z,72.90
2017-12-01T13:16:04.894Z,72.70
2017-12-01T13:18:32.541Z,74.30
2017-12-01T13:21:00.173Z,74.00
2017-12-01T13:23:28.595Z,73.70
2017-12-01T13:25:56.262Z,73.70
2017-12-01T13:28:23.897Z,73.80
2017-12-01T13:30:51.552Z,73.50
2017-12-01T13:33:19.200Z,73.80
2017-12-01T13:35:46.821Z,74.20
2017-12-01T13:38:14.479Z,73.50
2017-12-01T13:40:42.223Z,73.30
2017-12-01T13:43:09.830Z,73.90
2017-12-01T13:45:38.239Z,74.60
2017-12-01T13:48:05.844Z,74.50
2017-12-01T13:50:33.508Z,74.20
2017-12-01T13:53:01.112Z,74.70
2017-12-01T13:55:28.742Z,74.40
2017-12-01T13:57:56.388Z,74.40
2017-12-01T14:00:23.988Z,75.40
2017-12-01T14:02:52.408Z,74.20
2017-12-01T14:05:20.022Z,74.20
2017-12-01T14:07:48.413Z,74.20
2017-12-01T14:10:16.037Z,74.10
2017-12-01T14:12:43.641Z,73.90
2017-12-01T14:15:11.268Z,73.50
2017-12-01T14:17:38.865Z,73.80
2017-12-01T14:20:06.517Z,74.00
2017-12-01T14:22:34.890Z,74.20
2017-12-01T14:25:03.293Z,74.30
2017-12-01T14:27:30.922Z,74.20
2017-12-01T14:29:58.551Z,74.10
2017-12-01T14:32:26.179Z,74.50
2017-12-01T14:34:53.773Z,74.40
2017-12-01T14:37:21.372Z,74.10
2017-12-01T14:39:49.753Z,74.20
2017-12-01T14:42:18.125Z,74.10
2017-12-01T14:44:46.516Z,73.80
2017-12-01T14:47:14.148Z,73.70
2017-12-01T14:49:41.742Z,73.60
2017-12-01T14:52:09.369Z,74.40
2017-12-01T14:54:36.962Z,73.50
2017-12-01T14:57:04.593Z,73.70
2017-12-01T14:59:32.952Z,74.20
2017-12-01T15:02:00.697Z,74.10
2017-12-01T15:04:28.322Z,74.10
2017-12-01T15:06:56.019Z,74.50
2017-12-01T15:09:23.645Z,74.10
2017-12-01T15:11:51.996Z,74.40
2017-12-01T15:14:19.647Z,74.30
2017-12-01T15:16:48.003Z,74.40
2017-12-01T15:19:15.631Z,74.40
2017-12-01T15:21:43.241Z,74.30
2017-12-01T15:24:10.841Z,74.10
2017-12-01T15:26:39.236Z,74.50
2017-12-01T15:29:06.855Z,74.50
2017-12-01T15:31:34.492Z,73.80
2017-12-01T15:34:02.119Z,73.50
2017-12-01T15:36:29.747Z,73.90
2017-12-01T15:38:58.130Z,74.10
2017-12-01T15:41:26.652Z,74.20
2017-12-01T15:43:54.326Z,74.10
2017-12-01T15:46:21.936Z,73.80
2017-12-01T15:48:50.334Z,73.30
2017-12-01T15:51:18.714Z,74.30
2017-12-01T15:53:46.309Z,74.20
2017-12-01T15:56:13.955Z,73.90
2017-12-01T15:58:44.798Z,74.30
2017-12-01T16:01:12.463Z,73.40
2017-12-01T16:03:40.343Z,74.30
2017-12-01T16:06:08.091Z,74.00
2017-12-01T16:08:35.713Z,73.80
2017-12-01T16:11:04.091Z,74.20
2017-12-01T16:13:32.513Z,74.00
2017-12-01T16:16:00.131Z,73.90
2017-12-01T16:18:28.536Z,73.20
2017-12-01T16:20:56.167Z,73.00
2017-12-01T16:23:24.585Z,73.00
2017-12-01T16:25:52.215Z,73.00
2017-12-01T16:28:20.601Z,73.00
2017-12-01T16:30:48.255Z,73.00
2017-12-01T16:33:16.641Z,74.20
2017-12-01T16:35:45.050Z,74.30
2017-12-01T16:38:12.637Z,74.20
2017-12-01T16:40:40.240Z,74.70
2017-12-01T16:43:08.651Z,74.60
2017-12-01T16:45:36.255Z,74.40
2017-12-01T16:48:04.677Z,74.50
2017-12-01T16:50:32.293Z,74.50
2017-12-01T16:52:59.949Z,74.50
2017-12-01T16:55:27.580Z,74.70
2017-12-01T16:57:55.221Z,74.70
2017-12-01T17:00:22.865Z,74.80
2017-12-01T17:02:51.253Z,74.60
2017-12-01T17:05:19.192Z,74.60
2017-12-01T17:07:46.813Z,74.60
2017-12-01T17:10:14.464Z,74.60
2017-12-01T17:12:43.659Z,74.20
2017-12-01T17:15:12.232Z,74.70
2017-12-01T17:17:39.935Z,74.60
2017-12-01T17:20:07.600Z,74.70
2017-12-01T17:22:36.067Z,74.80
2017-12-01T17:25:04.589Z,75.00
2017-12-01T17:27:32.979Z,74.90
2017-12-01T17:30:01.377Z,74.90
2017-12-01T17:32:28.980Z,74.80
2017-12-01T17:34:56.623Z,74.60
2017-12-01T17:37:24.229Z,74.80
2017-12-01T17:39:52.640Z,74.70
2017-12-01T17:42:20.312Z,74.50
2017-12-01T17:44:47.924Z,74.70
2017-12-01T17:47:15.576Z,74.80
2017-12-01T17:49:43.240Z,74.70
2017-12-01T17:52:10.898Z,74.30
2017-12-01T17:54:38.638Z,74.50
2017-12-01T17:57:07.157Z,73.40
2017-12-01T17:59:34.804Z,73.20
2017-12-01T18:02:03.166Z,75.00
2017-12-01T18:04:30.818Z,74.40
2017-12-01T18:06:58.423Z,74.40
2017-12-01T18:09:26.131Z,74.70
2017-12-01T18:11:53.752Z,74.70
2017-12-01T18:14:22.130Z,74.50
2017-12-01T18:16:50.540Z,74.70
2017-12-01T18:19:18.161Z,74.50
2017-12-01T18:21:45.779Z,74.40
2017-12-01T18:24:13.409Z,74.50
2017-12-01T18:26:41.107Z,74.20
2017-12-01T18:29:08.749Z,74.20
2017-12-01T18:31:36.373Z,74.30
2017-12-01T18:34:03.999Z,74.40
2017-12-01T18:36:31.650Z,74.30
2017-12-01T18:38:59.279Z,74.30
2017-12-01T18:41:26.929Z,74.40
2017-12-01T18:43:55.304Z,74.40
2017-12-01T18:46:23.711Z,74.20
2017-12-01T18:48:51.332Z,73.90
2017-12-01T18:51:18.980Z,73.80
2017-12-01T18:53:46.602Z,73.80
2017-12-01T18:56:14.215Z,73.70
2017-12-01T18:58:43.348Z,73.10
2017-12-01T19:01:10.948Z,73.00
2017-12-01T19:03:38.596Z,72.90
2017-12-01T19:06:06.197Z,73.10
2017-12-01T19:08:34.592Z,73.30
2017-12-01T19:11:02.960Z,73.40
2017-12-01T19:13:31.347Z,73.20
2017-12-01T19:15:59.752Z,73.30
2017-12-01T19:18:27.397Z,73.30
2017-12-01T19:20:55.100Z,73.20
2017-12-01T19:23:22.717Z,73.50
2017-12-01T19:25:51.136Z,73.20
2017-12-01T19:28:18.746Z,73.20
2017-12-01T19:30:47.170Z,73.30
2017-12-01T19:33:14.794Z,73.20
2017-12-01T19:35:43.171Z,73.60
2017-12-01T19:38:11.565Z,73.60
2017-12-01T19:40:39.183Z,73.40
2017-12-01T19:43:06.789Z,73.50
2017-12-01T19:45:34.429Z,73.70
2017-12-01T19:48:02.793Z,73.60
2017-12-01T19:50:30.399Z,73.30
2017-12-01T19:52:58.056Z,73.30
2017-12-01T19:55:25.673Z,73.20
2017-12-01T19:57:53.284Z,73.10
2017-12-01T20:00:20.925Z,72.90
2017-12-01T20:02:48.639Z,73.10
2017-12-01T20:05:16.243Z,73.30
2017-12-01T20:07:44.654Z,73.40
2017-12-01T20:10:12.258Z,73.30
2017-12-01T20:12:39.880Z,72.90
2017-12-01T20:15:07.508Z,73.10
2017-12-01T20:17:35.897Z,73.10
2017-12-01T20:20:03.538Z,72.90
2017-12-01T20:22:32.137Z,72.90
2017-12-01T20:24:59.757Z,72.90
2017-12-01T20:27:28.897Z,73.00
2017-12-01T20:29:56.497Z,73.00
2017-12-01T20:32:24.152Z,73.10
2017-12-01T20:34:51.770Z,73.20
2017-12-01T20:37:20.162Z,73.30
2017-12-01T20:39:47.770Z,73.20
2017-12-01T20:42:15.366Z,73.50
2017-12-01T20:44:43.769Z,73.00
2017-12-01T20:47:11.386Z,73.70
2017-12-01T20:49:39.024Z,73.10
2017-12-01T20:52:06.646Z,72.80
2017-12-01T20:54:34.290Z,72.60
2017-12-01T20:57:02.660Z,72.90
2017-12-01T20:59:31.605Z,72.70
2017-12-01T21:01:59.883Z,72.60
2017-12-01T21:04:27.861Z,72.90
2017-12-01T21:06:55.826Z,72.80
2017-12-01T21:09:24.964Z,72.70
2017-12-01T21:11:53.007Z,72.70
2017-12-01T21:14:21.036Z,72.80
2017-12-01T21:16:49.046Z,72.90
2017-12-01T21:19:16.939Z,72.50
2017-12-01T21:21:45.329Z,72.20
2017-12-01T21:24:13.717Z,72.60
2017-12-01T21:26:42.137Z,72.70
2017-12-01T21:29:09.762Z,72.60
2017-12-01T21:31:37.422Z,72.50
2017-12-01T21:34:05.805Z,73.10
2017-12-01T21:36:33.428Z,72.10
2017-12-01T21:39:01.082Z,72.20
2017-12-01T21:41:28.712Z,72.30
2017-12-01T21:43:56.364Z,72.90
2017-12-01T21:46:23.973Z,72.90
2017-12-01T21:48:51.564Z,72.60
2017-12-01T21:51:19.988Z,72.10
2017-12-01T21:53:47.598Z,71.90
2017-12-01T21:56:15.989Z,71.60
2017-12-01T21:58:43.615Z,71.40
2017-12-01T22:01:11.205Z,71.00
2017-12-01T22:03:39.606Z,71.70
2017-12-01T22:06:07.228Z,71.50
2017-12-01T22:08:35.627Z,71.70
2017-12-01T22:11:03.993Z,72.00
2017-12-01T22:13:32.360Z,72.60
2017-12-01T22:15:59.993Z,72.50
2017-12-01T22:18:27.595Z,72.30
2017-12-01T22:20:56.123Z,72.50
2017-12-01T22:23:23.783Z,72.30
2017-12-01T22:25:51.372Z,72.10
2017-12-01T22:28:19.012Z,72.30
2017-12-01T22:30:46.621Z,72.30
2017-12-01T22:33:15.033Z,72.30
2017-12-01T22:35:42.647Z,72.20
2017-12-01T22:38:10.244Z,72.20
2017-12-01T22:40:37.868Z,72.30
2017-12-01T22:43:05.470Z,72.20
2017-12-01T22:45:33.109Z,72.40
2017-12-01T22:48:01.477Z,72.90
2017-12-01T22:50:29.833Z,72.90
2017-12-01T22:52:57.455Z,72.90
2017-12-01T22:55:25.057Z,73.00
2017-12-01T22:57:52.680Z,72.80
2017-12-01T23:00:21.292Z,73.10
2017-12-01T23:02:48.929Z,73.10
2017-12-01T23:05:16.547Z,73.20
2017-12-01T23:07:44.923Z,72.90
2017-12-01T23:10:13.353Z,73.10
2017-12-01T23:12:40.948Z,72.90
2017-12-01T23:15:08.576Z,73.20
2017-12-01T23:17:36.173Z,73.30
2017-12-01T23:20:03.782Z,73.30
2017-12-01T23:22:31.405Z,73.00
2017-12-01T23:24:59.767Z,72.80
2017-12-01T23:27:27.395Z,72.60
2017-12-01T23:29:54.997Z,73.00
2017-12-01T23:32:22.592Z,72.90
2017-12-01T23:34:50.210Z,72.90
2017-12-01T23:37:19.305Z,73.30
2017-12-01T23:39:47.702Z,73.20
2017-12-01T23:42:16.063Z,73.20
2017-12-01T23:44:45.160Z,73.40
2017-12-01T23:47:12.812Z,73.30
2017-12-01T23:49:40.421Z,73.40
2017-12-01T23:52:08.049Z,73.20
2017-12-01T23:54:35.642Z,73.20
2017-12-01T23:57:03.260Z,73.50
2017-12-01T23:59:30.880Z,73.30
